Time;durP1;ratioP1;P1;durP2;ratioP2;P2;SDS_P1;SDS_P2;PMS_P1;PMS_P2;Temp;Humidity;BMP_temperature;BMP_pressure;BME280_temperature;BME280_humidity;BME280_pressure;Samples;Min_cycle;Max_cycle;Signal;HPM_P1;HPM_P2
2022/08/16 00:00:37;;;;;;;12.18;7.50;;;;;;;22.61;79.29;98128.84;5081193;28;20393;-93
2022/08/16 00:03:03;;;;;;;11.63;8.07;;;;;;;22.57;79.65;98124.69;5099435;28;20040;-93
2022/08/16 00:05:29;;;;;;;10.30;7.53;;;;;;;22.62;80.86;98121.56;5095937;28;20124;-91
2022/08/16 00:07:57;;;;;;;12.25;7.35;;;;;;;22.45;80.57;98104.09;5094007;28;20046;-93
2022/08/16 00:10:26;;;;;;;13.10;8.13;;;;;;;22.32;80.71;98104.28;5093584;28;20055;-91
2022/08/16 00:12:52;;;;;;;;;;;;;;;22.41;79.78;98127.88;5095883;28;20493;-95
2022/08/16 00:15:23;;;;;;;12.77;6.93;;;;;;;22.45;78.86;98133.88;5094923;28;19923;-92
2022/08/16 00:17:50;;;;;;;10.82;6.68;;;;;;;22.23;79.26;98124.88;5097951;28;20040;-92
2022/08/16 00:20:16;;;;;;;12.35;7.32;;;;;;;22.15;79.72;98113.81;5093905;28;20125;-94
2022/08/16 00:22:43;;;;;;;12.43;6.80;;;;;;;22.11;79.81;98110.50;5094820;28;20601;-92
2022/08/16 00:25:12;;;;;;;10.77;6.95;;;;;;;22.13;80.42;98121.22;5096146;28;20726;-94
2022/08/16 00:27:38;;;;;;;11.57;6.50;;;;;;;22.02;81.74;98103.16;5093708;28;20516;-92
2022/08/16 00:30:06;;;;;;;13.05;7.03;;;;;;;21.93;81.55;98110.22;5092871;28;20089;-93
2022/08/16 00:32:34;;;;;;;11.40;6.60;;;;;;;21.95;79.90;98101.97;5092810;28;20035;-93
2022/08/16 00:35:00;;;;;;;11.53;6.50;;;;;;;21.97;79.73;98091.00;5095221;28;20039;-93
2022/08/16 00:37:26;;;;;;;11.27;6.07;;;;;;;21.90;80.05;98093.34;5098158;28;20040;-93
2022/08/16 00:39:53;;;;;;;10.57;6.43;;;;;;;21.90;81.09;98096.06;5098716;28;20493;-93
2022/08/16 00:42:19;;;;;;;11.20;6.85;;;;;;;21.82;83.16;98091.31;5097356;28;20394;-94
2022/08/16 00:44:52;;;;;;;11.15;7.28;;;;;;;21.97;84.13;98100.00;5097227;28;20394;-94
2022/08/16 00:47:20;;;;;;;10.75;6.32;;;;;;;21.92;84.36;98092.25;5097963;28;20520;-94
2022/08/16 00:49:47;;;;;;;11.70;6.93;;;;;;;21.91;84.26;98078.84;5097594;28;20036;-95
2022/08/16 00:52:13;;;;;;;12.57;7.18;;;;;;;21.88;83.67;98058.31;5103645;28;20292;-93
2022/08/16 00:54:39;;;;;;;9.80;6.63;;;;;;;21.82;82.37;98039.88;5106150;28;20055;-95
2022/08/16 00:57:06;;;;;;;11.27;6.80;;;;;;;21.93;81.88;98045.25;5102771;28;20442;-93
2022/08/16 00:59:34;;;;;;;12.70;7.55;;;;;;;21.95;83.13;98037.84;5098263;28;20068;-95
2022/08/16 01:02:02;;;;;;;13.63;7.88;;;;;;;21.89;84.22;98026.69;5098584;28;20044;-94
2022/08/16 01:04:28;;;;;;;12.25;7.68;;;;;;;21.91;85.39;98035.53;5098409;28;20066;-94
2022/08/16 01:06:56;;;;;;;11.07;7.18;;;;;;;21.79;85.66;97996.81;5097639;28;20127;-93
2022/08/16 01:09:22;;;;;;;10.65;6.78;;;;;;;21.90;84.82;98004.91;5099093;28;20047;-93
2022/08/16 01:11:48;;;;;;;14.55;7.28;;;;;;;21.77;85.38;98006.94;5103780;28;20040;-94
2022/08/16 01:14:29;;;;;;;11.75;8.05;;;;;;;21.73;85.83;98035.25;5099179;28;20161;-93
2022/08/16 01:16:56;;;;;;;13.13;7.88;;;;;;;21.45;86.15;98017.78;5097716;28;20032;-94
2022/08/16 01:19:27;;;;;;;13.10;7.70;;;;;;;21.22;85.48;98041.28;5097634;28;20063;-92
2022/08/16 01:21:58;;;;;;;9.05;7.03;;;;;;;21.19;85.89;98055.03;5096770;28;20040;-94
2022/08/16 01:24:29;;;;;;;12.13;6.80;;;;;;;21.19;85.94;98065.84;5099961;28;20098;-94
2022/08/16 01:27:11;;;;;;;13.40;7.15;;;;;;;21.06;88.40;98066.88;5096399;28;20131;-94
2022/08/16 01:29:41;;;;;;;12.55;7.30;;;;;;;21.01;89.03;98066.38;5099744;28;20062;-93
2022/08/16 01:32:06;;;;;;;11.50;6.50;;;;;;;20.99;88.78;98057.56;5101489;28;20371;-94
2022/08/16 01:34:32;;;;;;;11.60;6.45;;;;;;;20.96;88.89;98054.22;5098397;28;20039;-93
2022/08/16 01:37:02;;;;;;;14.45;6.90;;;;;;;20.93;89.35;98052.66;5098415;28;20127;-93
2022/08/16 01:39:30;;;;;;;12.00;7.13;;;;;;;20.85;89.56;98047.00;5096663;28;20040;-93
2022/08/16 01:41:56;;;;;;;15.57;6.90;;;;;;;20.84;89.86;98061.47;5098999;28;20036;-94
2022/08/16 01:44:22;;;;;;;10.57;6.68;;;;;;;20.64;90.49;98045.00;5097325;28;20061;-94
2022/08/16 01:46:49;;;;;;;9.75;6.28;;;;;;;20.69;89.84;98064.44;5095982;28;20396;-94
2022/08/16 01:49:17;;;;;;;10.90;6.75;;;;;;;20.47;90.65;98048.16;5096416;28;20055;-93
2022/08/16 01:51:46;;;;;;;12.45;6.55;;;;;;;20.47;91.04;98053.56;5100960;28;20044;-93
2022/08/16 01:54:12;;;;;;;12.73;7.05;;;;;;;20.42;90.93;98047.69;5098295;28;20148;-94
2022/08/16 01:56:39;;;;;;;12.25;6.90;;;;;;;20.47;89.45;98051.75;5095834;28;20564;-93
2022/08/16 01:59:08;;;;;;;11.30;6.53;;;;;;;20.48;88.75;98047.19;5096321;28;20503;-94
2022/08/16 02:01:35;;;;;;;10.18;6.15;;;;;;;20.28;88.97;98022.63;5097410;28;20040;-92
2022/08/16 02:04:02;;;;;;;11.75;6.13;;;;;;;20.31;89.62;98056.63;5096958;28;20040;-93
2022/08/16 02:06:28;;;;;;;10.18;6.38;;;;;;;20.39;89.50;98062.28;5096534;28;20043;-93
2022/08/16 02:08:54;;;;;;;10.23;6.53;;;;;;;20.26;90.39;98073.19;5092919;28;20043;-93
2022/08/16 02:11:21;;;;;;;10.15;6.93;;;;;;;19.99;91.66;98042.94;5096838;28;20093;-93
2022/08/16 02:13:49;;;;;;;11.27;6.32;;;;;;;19.94;92.46;98051.38;5097788;28;20032;-93
2022/08/16 02:16:15;;;;;;;13.75;7.18;;;;;;;20.11;92.33;98077.06;5096931;28;20489;-92
2022/08/16 02:18:41;;;;;;;12.73;8.07;;;;;;;20.02;93.53;98083.19;5096832;28;20036;-93
2022/08/16 02:21:08;;;;;;;13.68;6.95;;;;;;;20.06;94.16;98092.75;5097555;28;20038;-92
2022/08/16 02:23:36;;;;;;;14.48;7.43;;;;;;;20.11;94.44;98095.97;5097232;28;20043;-93
2022/08/16 02:26:02;;;;;;;9.70;6.90;;;;;;;20.07;93.51;98076.44;5097861;28;20040;-93
2022/08/16 02:28:28;;;;;;;12.25;7.25;;;;;;;20.17;94.03;98083.81;5103725;28;20515;-93
2022/08/16 02:30:58;;;;;;;10.55;6.68;;;;;;;20.07;94.50;98062.94;5096025;28;20073;-93
2022/08/16 02:33:25;;;;;;;12.43;6.38;;;;;;;20.10;94.89;98069.94;5096508;28;20040;-93
2022/08/16 02:35:51;;;;;;;13.75;7.35;;;;;;;20.27;93.80;98068.63;5096960;28;20036;-93
2022/08/16 02:38:17;;;;;;;11.35;7.43;;;;;;;20.16;93.86;98050.56;5098975;28;20033;-93
2022/08/16 02:40:43;;;;;;;11.77;7.03;;;;;;;20.29;94.51;98072.09;5097053;28;20040;-93
2022/08/16 02:43:09;;;;;;;15.93;7.47;;;;;;;20.35;94.58;98070.75;5094598;28;20036;-94
2022/08/16 02:45:35;;;;;;;11.35;7.93;;;;;;;20.31;94.01;98052.06;5095668;28;20094;-94
2022/08/16 02:48:04;;;;;;;11.57;7.70;;;;;;;20.40;94.51;98068.53;5097086;28;20036;-92
2022/08/16 02:50:29;;;;;;;16.88;9.07;;;;;;;20.43;94.07;98060.22;5097027;28;20052;-93
2022/08/16 02:52:55;;;;;;;11.65;7.93;;;;;;;20.53;92.97;98063.88;5099586;28;20508;-92
2022/08/16 02:55:22;;;;;;;11.90;7.88;;;;;;;20.51;91.80;98041.53;5096759;28;20042;-92
2022/08/16 02:57:48;;;;;;;14.25;8.07;;;;;;;20.63;91.63;98055.97;5094635;28;20040;-92
2022/08/16 03:00:15;;;;;;;12.38;8.23;;;;;;;20.77;90.30;98076.47;5095670;28;20382;-94
2022/08/16 03:02:43;;;;;;;15.93;7.85;;;;;;;20.65;90.89;98049.44;5096124;28;20032;-91
2022/08/16 03:05:12;;;;;;;12.80;8.00;;;;;;;20.64;90.62;98045.00;5094643;28;20063;-94
2022/08/16 03:07:38;;;;;;;12.77;7.82;;;;;;;20.71;90.60;98051.66;5094378;28;20556;-93
2022/08/16 03:10:07;;;;;;;12.73;7.75;;;;;;;20.80;90.50;98066.28;5095758;28;20519;-94
2022/08/16 03:12:33;;;;;;;12.52;7.40;;;;;;;20.79;89.68;98048.34;5097560;28;20123;-93
2022/08/16 03:14:59;;;;;;;13.52;7.43;;;;;;;20.88;89.33;98062.94;5094534;28;20043;-94
2022/08/16 03:17:25;;;;;;;11.48;7.15;;;;;;;20.81;88.96;98051.78;5094739;28;20028;-93
2022/08/16 03:19:52;;;;;;;15.75;7.65;;;;;;;20.78;88.98;98060.13;5094476;28;20058;-94
2022/08/16 03:22:20;;;;;;;11.85;7.43;;;;;;;20.76;88.75;98061.25;5094694;28;20044;-93
2022/08/16 03:24:47;;;;;;;12.75;6.90;;;;;;;20.68;89.30;98060.00;5094165;28;20493;-94
2022/08/16 03:27:13;;;;;;;11.55;7.57;;;;;;;20.61;89.43;98056.06;5095067;28;20097;-93
2022/08/16 03:29:39;;;;;;;14.40;8.20;;;;;;;20.58;89.92;98072.53;5094887;28;20493;-92
2022/08/16 03:32:05;;;;;;;11.50;7.50;;;;;;;20.51;90.61;98057.75;5094617;28;20046;-94
2022/08/16 03:34:32;;;;;;;13.38;7.53;;;;;;;20.53;90.31;98080.09;5094600;28;20040;-93
2022/08/16 03:36:59;;;;;;;13.02;7.53;;;;;;;;;;5094572;28;20040;-94
2022/08/16 03:39:27;;;;;;;12.15;7.55;;;;;;;20.37;90.65;98064.25;5095636;28;20036;-91
2022/08/16 03:41:53;;;;;;;13.13;7.50;;;;;;;20.35;91.21;98081.56;5094116;28;20036;-93
2022/08/16 03:44:19;;;;;;;15.32;7.38;;;;;;;20.30;91.12;98080.06;5094322;28;20051;-91
2022/08/16 03:46:46;;;;;;;12.95;7.50;;;;;;;20.18;91.26;98075.63;5094104;28;20188;-93
2022/08/16 03:49:12;;;;;;;14.98;7.55;;;;;;;20.28;90.35;98084.72;5093842;28;20032;-94
2022/08/16 03:51:39;;;;;;;12.98;7.03;;;;;;;20.31;90.39;98092.59;5095055;28;20048;-92
2022/08/16 03:54:05;;;;;;;11.60;7.20;;;;;;;20.35;89.88;98090.50;5095392;28;20050;-92
2022/08/16 03:56:33;;;;;;;13.02;7.45;;;;;;;20.25;89.62;98079.56;5095436;28;20437;-92
2022/08/16 03:58:59;;;;;;;11.23;7.20;;;;;;;20.29;89.77;98077.47;5095555;28;20044;-92
2022/08/16 04:01:25;;;;;;;10.50;7.15;;;;;;;20.31;89.23;98065.56;5095116;28;20046;-91
2022/08/16 04:03:52;;;;;;;12.55;8.00;;;;;;;20.39;88.76;98072.25;5093390;28;20032;-90
2022/08/16 04:06:19;;;;;;;12.57;7.10;;;;;;;20.36;89.08;98069.75;5095144;28;20076;-95
2022/08/16 04:08:46;;;;;;;11.77;7.28;;;;;;;20.28;88.88;98059.56;5094072;28;20441;-92
2022/08/16 04:11:12;;;;;;;11.60;7.40;;;;;;;20.39;88.64;98078.50;5097390;28;20044;-93
2022/08/16 04:13:40;;;;;;;11.38;6.90;;;;;;;20.44;88.83;98091.63;5098019;28;20068;-92
2022/08/16 04:16:06;;;;;;;10.95;6.70;;;;;;;20.45;88.51;98087.94;5098196;28;20516;-91
2022/08/16 04:18:35;;;;;;;13.27;7.50;;;;;;;20.41;88.67;98092.75;5098167;28;20039;-93
2022/08/16 04:21:01;;;;;;;;;;;;;;;20.42;88.29;98090.88;5098977;28;20127;-93
2022/08/16 04:23:27;;;;;;;13.25;6.95;;;;;;;20.34;87.43;98074.41;5099215;28;19963;-92
2022/08/16 04:25:53;;;;;;;11.23;7.28;;;;;;;20.33;87.82;98078.97;5100090;28;20036;-92
2022/08/16 04:28:19;;;;;;;13.20;7.22;;;;;;;20.17;88.20;98064.94;5098491;28;20063;-92
2022/08/16 04:30:46;;;;;;;14.77;7.43;;;;;;;20.23;88.57;98084.25;5097821;28;20039;-92
2022/08/16 04:33:12;;;;;;;10.70;7.35;;;;;;;20.16;89.10;98082.13;5098144;28;20505;-92
2022/08/16 04:35:38;;;;;;;13.15;7.15;;;;;;;20.09;89.17;98076.34;5098273;28;20097;-91
2022/08/16 04:38:04;;;;;;;11.70;6.55;;;;;;;20.10;88.18;98070.84;5097736;28;20529;-92
2022/08/16 04:40:31;;;;;;;11.50;6.63;;;;;;;20.07;87.50;98067.50;5097583;28;20375;-93
2022/08/16 04:43:00;;;;;;;10.98;6.80;;;;;;;20.11;86.91;98060.88;5097481;28;20466;-90
2022/08/16 04:45:26;;;;;;;13.05;7.10;;;;;;;20.10;87.03;98065.44;5096115;28;20093;-92
2022/08/16 04:47:53;;;;;;;9.80;6.60;;;;;;;20.13;86.62;98075.13;5098985;28;20036;-91
2022/08/16 04:50:22;;;;;;;9.95;6.60;;;;;;;20.20;86.46;98095.25;5097064;28;20076;-91
2022/08/16 04:52:49;;;;;;;13.20;6.53;;;;;;;20.23;85.90;98095.03;5097171;28;20056;-92
2022/08/16 04:55:18;;;;;;;10.95;6.85;;;;;;;20.37;85.16;98093.97;5099134;28;20062;-93
2022/08/16 04:57:45;;;;;;;;;;;;;;;20.52;84.34;98110.81;5099482;28;20036;-92
2022/08/16 05:00:14;;;;;;;9.18;5.75;;;;;;;20.42;84.46;98082.78;5098757;28;19961;-93
2022/08/16 05:02:41;;;;;;;9.68;6.50;;;;;;;20.44;84.96;98078.97;5098951;28;20047;-93
2022/08/16 05:05:09;;;;;;;9.70;6.55;;;;;;;20.42;84.37;98082.78;5097559;28;20074;-93
2022/08/16 05:07:35;;;;;;;11.40;6.07;;;;;;;20.60;84.25;98116.50;5094184;28;20050;-92
2022/08/16 05:10:04;;;;;;;11.60;6.15;;;;;;;20.63;84.18;98115.41;5097479;28;20122;-92
2022/08/16 05:12:30;;;;;;;11.02;5.93;;;;;;;20.56;84.37;98108.69;5095802;28;20042;-93
2022/08/16 05:14:56;;;;;;;11.05;6.43;;;;;;;20.38;84.29;98084.00;5097075;28;20032;-93
2022/08/16 05:17:22;;;;;;;10.05;5.85;;;;;;;20.52;84.48;98106.25;5099059;28;20114;-92
2022/08/16 05:19:48;;;;;;;11.85;6.32;;;;;;;20.53;85.02;98117.91;5098619;28;20481;-93
2022/08/16 05:22:16;;;;;;;11.43;6.07;;;;;;;20.64;84.92;98120.66;5097612;28;20047;-92
2022/08/16 05:24:41;;;;;;;9.20;5.72;;;;;;;;;;5096859;28;20501;-93
2022/08/16 05:27:07;;;;;;;11.38;6.03;;;;;;;20.74;84.93;98119.97;5099308;28;20043;-93
2022/08/16 05:29:33;;;;;;;13.43;6.70;;;;;;;20.63;85.33;98089.25;5098632;28;20118;-93
2022/08/16 05:32:00;;;;;;;11.38;6.93;;;;;;;20.83;85.37;98097.59;5097626;28;20040;-93
2022/08/16 05:34:26;;;;;;;11.10;7.03;;;;;;;21.09;84.99;98109.03;5096961;28;20122;-92
2022/08/16 05:36:56;;;;;;;11.13;6.90;;;;;;;21.27;83.57;98104.81;5096152;28;20131;-93
2022/08/16 05:39:23;;;;;;;11.57;7.07;;;;;;;21.41;82.19;98117.25;5093788;28;20056;-93
2022/08/16 05:41:50;;;;;;;13.77;6.63;;;;;;;21.40;81.13;98107.38;5096113;28;20032;-93
2022/08/16 05:44:17;;;;;;;13.20;7.18;;;;;;;21.56;79.94;98116.97;5096591;28;20040;-94
2022/08/16 05:46:44;;;;;;;14.60;7.20;;;;;;;21.64;79.78;98112.66;5097378;28;20036;-93
2022/08/16 05:49:12;;;;;;;14.95;7.47;;;;;;;21.73;79.93;98111.88;5101615;28;20119;-93
2022/08/16 05:51:38;;;;;;;11.80;6.93;;;;;;;21.96;78.80;98119.91;5096283;28;20047;-94
2022/08/16 05:54:04;;;;;;;11.60;6.60;;;;;;;21.98;78.82;98115.22;5096445;28;20028;-94
2022/08/16 05:56:31;;;;;;;12.85;6.88;;;;;;;22.10;77.23;98113.34;5096134;28;20465;-93
2022/08/16 05:58:57;;;;;;;11.90;7.03;;;;;;;22.13;75.75;98111.22;5097829;28;20050;-92
2022/08/16 06:01:23;;;;;;;11.80;7.05;;;;;;;22.18;75.75;98113.53;5097825;28;20043;-93
2022/08/16 06:03:49;;;;;;;11.18;6.43;;;;;;;22.21;75.94;98117.84;5096474;28;20439;-92
2022/08/16 06:06:15;;;;;;;10.55;5.53;;;;;;;22.39;74.48;98137.13;5095892;28;20054;-93
2022/08/16 06:08:41;;;;;;;12.13;6.28;;;;;;;22.36;73.73;98119.28;5096746;28;20044;-95
2022/08/16 06:11:08;;;;;;;9.40;5.55;;;;;;;22.48;72.53;98129.03;5096484;28;20043;-93
2022/08/16 06:13:36;;;;;;;11.18;6.57;;;;;;;22.60;72.04;98123.56;5096164;28;20040;-92
2022/08/16 06:16:03;;;;;;;9.32;5.20;;;;;;;22.83;71.48;98140.53;5095845;28;20037;-93
2022/08/16 06:18:29;;;;;;;14.43;5.68;;;;;;;23.01;70.32;98133.53;5095963;28;20094;-92
2022/08/16 06:20:56;;;;;;;8.32;5.53;;;;;;;23.20;69.81;98149.00;5095942;28;20036;-94
2022/08/16 06:23:22;;;;;;;10.95;5.30;;;;;;;23.27;69.08;98150.22;5095848;28;20040;-93
2022/08/16 06:25:48;;;;;;;9.73;5.60;;;;;;;23.41;69.17;98161.69;5095794;28;20520;-94
2022/08/16 06:28:14;;;;;;;12.45;6.50;;;;;;;23.56;69.39;98165.72;5095768;28;20386;-93
2022/08/16 06:30:42;;;;;;;11.38;7.32;;;;;;;23.65;69.23;98167.59;5096250;28;20040;-92
2022/08/16 06:33:08;;;;;;;14.60;7.63;;;;;;;23.33;69.62;98165.06;5097109;28;20050;-92
2022/08/16 06:35:35;;;;;;;11.43;6.93;;;;;;;23.34;69.90;98161.38;5095378;28;20127;-93
2022/08/16 06:38:01;;;;;;;12.48;7.80;;;;;;;23.48;70.59;98171.81;5095143;28;20097;-92
2022/08/16 06:40:28;;;;;;;19.33;10.48;;;;;;;23.51;70.41;98160.72;5095043;28;20477;-93
2022/08/16 06:42:55;;;;;;;21.58;11.05;;;;;;;23.66;69.99;98163.03;5095239;28;20493;-93
2022/08/16 06:45:22;;;;;;;22.65;10.63;;;;;;;23.90;68.07;98162.66;5095391;28;20554;-92
2022/08/16 06:47:49;;;;;;;18.90;9.88;;;;;;;23.92;68.85;98166.09;5095921;28;20098;-92
2022/08/16 06:50:15;;;;;;;18.55;10.52;;;;;;;24.09;68.28;98179.00;5095852;28;20063;-92
2022/08/16 06:52:42;;;;;;;17.25;10.23;;;;;;;23.85;69.09;98162.25;5093890;28;20036;-93
2022/08/16 06:55:10;;;;;;;17.55;9.27;;;;;;;23.80;68.81;98159.94;5093951;28;20044;-93
2022/08/16 06:57:36;;;;;;;19.23;9.40;;;;;;;23.77;69.63;98174.66;5092507;28;20044;-93
2022/08/16 07:00:10;;;;;;;16.65;9.15;;;;;;;23.97;69.02;98167.41;5094005;28;20093;-91
2022/08/16 07:02:36;;;;;;;14.02;8.80;;;;;;;24.04;67.57;98169.56;5093873;28;20067;-94
2022/08/16 07:05:05;;;;;;;14.63;8.80;;;;;;;24.22;68.42;98170.56;5095499;28;20043;-93
2022/08/16 07:07:31;;;;;;;14.88;8.88;;;;;;;24.41;67.29;98153.41;5093012;28;20093;-92
2022/08/16 07:09:57;;;;;;;16.25;8.93;;;;;;;24.85;64.89;98161.94;5096280;28;20036;-94
2022/08/16 07:12:23;;;;;;;13.70;7.72;;;;;;;25.03;64.41;98156.63;5095132;28;20048;-92
2022/08/16 07:14:49;;;;;;;15.75;7.50;;;;;;;25.15;63.39;98144.53;5093709;28;20504;-94
2022/08/16 07:17:17;;;;;;;15.30;8.43;;;;;;;25.32;63.19;98164.69;5094383;28;20055;-93
2022/08/16 07:19:44;;;;;;;14.35;7.50;;;;;;;25.14;63.00;98155.59;5096102;28;20552;-94
2022/08/16 07:22:11;;;;;;;12.90;7.32;;;;;;;25.23;62.99;98162.88;5096236;28;20071;-93
2022/08/16 07:24:37;;;;;;;13.93;7.82;;;;;;;25.34;62.05;98154.53;5094802;28;20378;-93
2022/08/16 07:27:03;;;;;;;11.55;6.35;;;;;;;25.49;61.83;98156.75;5094665;28;20047;-94
2022/08/16 07:29:30;;;;;;;11.43;6.63;;;;;;;25.75;61.13;98168.66;5094570;28;20075;-94
2022/08/16 07:31:56;;;;;;;13.93;7.68;;;;;;;26.04;59.41;98167.63;5094964;28;20401;-93
2022/08/16 07:34:22;;;;;;;15.50;7.60;;;;;;;26.13;59.08;98165.84;5094605;28;20040;-93
2022/08/16 07:36:49;;;;;;;12.73;7.65;;;;;;;26.33;58.46;98174.75;5096110;28;20393;-94
2022/08/16 07:39:16;;;;;;;14.35;7.15;;;;;;;26.46;58.28;98164.31;5096215;28;20040;-92
2022/08/16 07:41:43;;;;;;;11.82;7.50;;;;;;;26.40;57.59;98163.03;5091486;28;20148;-94
2022/08/16 07:44:09;;;;;;;14.52;7.22;;;;;;;26.53;57.81;98172.72;5094750;28;20040;-93
2022/08/16 07:46:35;;;;;;;14.75;7.45;;;;;;;26.60;57.19;98168.34;5095673;28;20036;-92
2022/08/16 07:49:02;;;;;;;14.73;7.35;;;;;;;26.56;56.66;98150.59;5095650;28;20531;-93
2022/08/16 07:51:30;;;;;;;14.05;7.13;;;;;;;26.72;56.19;98163.50;5093708;28;20501;-94
2022/08/16 07:53:56;;;;;;;10.45;6.18;;;;;;;26.82;55.60;98167.84;5094325;28;20044;-94
2022/08/16 07:56:23;;;;;;;13.13;7.40;;;;;;;26.90;54.76;98152.56;5095954;28;20036;-95
2022/08/16 07:58:49;;;;;;;12.30;7.40;;;;;;;26.89;55.21;98164.47;5095187;28;20066;-94
2022/08/16 08:01:15;;;;;;;12.43;7.10;;;;;;;26.80;55.08;98156.22;5096393;28;20044;-92
2022/08/16 08:03:42;;;;;;;11.63;6.70;;;;;;;26.97;55.26;98164.53;5093929;28;20440;-95
2022/08/16 08:06:08;;;;;;;13.10;6.78;;;;;;;27.14;53.63;98168.22;5094215;28;20098;-95
2022/08/16 08:08:35;;;;;;;11.63;6.93;;;;;;;27.27;53.72;98170.56;5093870;28;20042;-94
2022/08/16 08:11:01;;;;;;;10.52;7.00;;;;;;;27.01;54.07;98165.94;5093759;28;20059;-94
2022/08/16 08:13:28;;;;;;;11.50;6.60;;;;;;;27.28;53.86;98186.75;5093763;28;20048;-94
2022/08/16 08:15:55;;;;;;;10.65;6.35;;;;;;;27.37;51.66;98168.53;5093585;28;20071;-94
2022/08/16 08:18:21;;;;;;;9.35;6.20;;;;;;;27.69;51.09;98191.56;5096069;28;20043;-94
2022/08/16 08:20:47;;;;;;;10.20;6.32;;;;;;;27.80;50.54;98194.00;5094951;28;20473;-94
2022/08/16 08:23:14;;;;;;;8.38;5.60;;;;;;;27.82;48.65;98205.63;5094388;28;20123;-94
2022/08/16 08:25:40;;;;;;;10.63;5.82;;;;;;;27.36;49.46;98181.34;5093887;28;20046;-93
2022/08/16 08:28:07;;;;;;;9.63;5.78;;;;;;;27.59;48.95;98192.56;5094763;28;20040;-93
2022/08/16 08:30:35;;;;;;;11.23;6.40;;;;;;;27.10;50.42;98197.72;5094215;28;20066;-95
2022/08/16 08:33:01;;;;;;;9.57;6.07;;;;;;;26.94;52.12;98197.63;5093409;28;20039;-94
2022/08/16 08:35:28;;;;;;;12.50;6.40;;;;;;;26.68;51.87;98198.44;5093407;28;20036;-92
2022/08/16 08:37:54;;;;;;;10.18;6.38;;;;;;;27.08;51.75;98209.81;5094468;28;20047;-93
2022/08/16 08:40:21;;;;;;;11.05;6.10;;;;;;;27.45;51.52;98206.81;5092508;28;20052;-91
2022/08/16 08:42:47;;;;;;;9.10;6.25;;;;;;;27.76;50.26;98203.53;5093996;28;20064;-94
2022/08/16 08:45:14;;;;;;;12.50;6.80;;;;;;;27.97;49.78;98186.75;5094866;28;20070;-93
2022/08/16 08:47:45;;;;;;;9.93;6.47;;;;;;;28.33;49.35;98206.50;5094026;28;20098;-92
2022/08/16 08:50:11;;;;;;;11.98;6.28;;;;;;;28.45;47.10;98209.75;5091614;28;20048;-93
2022/08/16 08:52:38;;;;;;;8.27;6.45;;;;;;;28.24;48.44;98213.81;5092736;28;20043;-93
2022/08/16 08:55:07;;;;;;;10.15;6.47;;;;;;;28.27;47.89;98209.91;5092909;28;20044;-93
2022/08/16 08:57:33;;;;;;;10.75;6.10;;;;;;;27.97;47.85;98214.94;5090629;28;20040;-96
2022/08/16 08:59:59;;;;;;;9.25;6.82;;;;;;;27.13;48.98;98194.69;5097056;28;20131;-94
2022/08/16 09:02:25;;;;;;;10.45;6.53;;;;;;;27.87;48.57;98222.44;5098155;28;20051;-94
2022/08/16 09:04:52;;;;;;;9.23;6.00;;;;;;;28.00;48.02;98200.94;5096190;28;20153;-93
2022/08/16 09:07:20;;;;;;;9.53;6.53;;;;;;;28.32;45.93;98193.81;5096825;28;20047;-95
2022/08/16 09:09:46;;;;;;;10.23;6.30;;;;;;;28.40;45.18;98193.84;5098653;28;20047;-93
2022/08/16 09:12:12;;;;;;;9.55;6.63;;;;;;;28.35;45.86;98198.13;5099419;28;20048;-92
2022/08/16 09:14:38;;;;;;;8.50;6.40;;;;;;;27.94;46.84;98211.69;5098219;28;20039;-92
2022/08/16 09:17:08;;;;;;;8.98;6.05;;;;;;;28.14;46.63;98217.72;5095539;28;20044;-93
2022/08/16 09:19:36;;;;;;;9.13;6.25;;;;;;;28.45;45.92;98196.94;5093771;28;20036;-92
2022/08/16 09:22:05;;;;;;;9.48;7.18;;;;;;;28.85;45.30;98222.63;5094161;28;20108;-91
2022/08/16 09:24:30;;;;;;;;;;;;;;;28.90;45.07;98218.53;5093516;28;20059;-92
2022/08/16 09:26:56;;;;;;;8.80;6.40;;;;;;;29.14;44.76;98209.47;5094527;28;20111;-91
2022/08/16 09:29:22;;;;;;;11.07;6.68;;;;;;;29.22;44.51;98213.06;5093122;28;20106;-89
2022/08/16 09:31:48;;;;;;;12.13;6.40;;;;;;;29.43;44.91;98211.63;5094343;28;20032;-93
2022/08/16 09:34:15;;;;;;;11.15;6.63;;;;;;;29.65;44.00;98221.84;5093455;28;20089;-92
2022/08/16 09:36:41;;;;;;;12.07;6.63;;;;;;;29.76;43.34;98231.59;5094997;28;20509;-92
2022/08/16 09:39:09;;;;;;;8.90;6.15;;;;;;;29.89;42.88;98220.09;5093943;28;20039;-92
2022/08/16 09:41:35;;;;;;;9.63;6.28;;;;;;;29.84;43.28;98204.16;5093494;28;20036;-92
2022/08/16 09:44:02;;;;;;;10.05;6.05;;;;;;;29.83;42.97;98207.09;5095870;28;20121;-92
2022/08/16 09:46:29;;;;;;;9.70;5.85;;;;;;;29.97;42.31;98214.56;5092470;28;20036;-92
2022/08/16 09:48:57;;;;;;;9.77;6.35;;;;;;;29.96;42.60;98203.78;5093301;28;20047;-93
2022/08/16 09:51:25;;;;;;;12.70;6.38;;;;;;;29.75;42.34;98224.41;5091148;28;20626;-92
2022/08/16 09:53:51;;;;;;;11.85;6.95;;;;;;;28.78;44.87;98209.78;5092982;28;20044;-91
2022/08/16 09:56:25;;;;;;;11.10;6.07;;;;;;;29.10;44.33;98233.59;5092865;28;20040;-91
2022/08/16 09:58:52;;;;;;;9.98;6.55;;;;;;;29.31;43.81;98210.31;5090722;28;20062;-90
2022/08/16 10:01:18;;;;;;;9.55;6.30;;;;;;;29.51;43.99;98221.72;5090828;28;20036;-91
2022/08/16 10:03:44;;;;;;;9.27;6.40;;;;;;;28.80;44.58;98200.41;5092471;28;20036;-90
2022/08/16 10:06:11;;;;;;;10.25;6.57;;;;;;;28.95;44.78;98202.44;5092156;28;20524;-90
2022/08/16 10:08:37;;;;;;;9.68;6.10;;;;;;;29.21;43.57;98200.41;5092409;28;20040;-92
2022/08/16 10:14:01;;;;;;;10.98;6.40;;;;;;;30.00;42.85;98210.59;5094753;27;1887437;-89
2022/08/16 10:16:27;;;;;;;9.23;5.90;;;;;;;30.12;42.58;98214.63;5140756;27;20051;-89
2022/08/16 10:18:53;;;;;;;10.32;5.68;;;;;;;30.29;41.72;98218.16;5137849;27;20035;-89
2022/08/16 10:21:21;;;;;;;8.57;5.57;;;;;;;30.09;40.75;98207.63;5137400;27;20038;-89
2022/08/16 10:23:48;;;;;;;8.65;5.65;;;;;;;30.00;41.39;98225.16;5141141;27;20039;-90
2022/08/16 10:26:14;;;;;;;8.90;6.03;;;;;;;30.13;40.92;98221.84;5143699;27;20520;-91
2022/08/16 10:28:41;;;;;;;11.50;6.20;;;;;;;29.78;41.85;98212.25;5139791;27;20043;-89
2022/08/16 10:31:09;;;;;;;8.88;6.15;;;;;;;29.92;41.90;98211.47;5137950;27;20480;-90
2022/08/16 10:33:36;;;;;;;10.95;6.55;;;;;;;29.99;42.31;98217.94;5143295;27;20072;-90
2022/08/16 10:36:05;;;;;;;11.63;5.88;;;;;;;30.13;41.55;98197.16;5141572;27;20039;-91
2022/08/16 10:41:32;;;;;;;13.48;6.55;;;;;;;29.86;41.48;98202.09;5121247;27;20364;-90
2022/08/16 10:43:58;;;;;;;10.07;6.05;;;;;;;30.08;41.64;98197.72;5126383;28;20043;-89
2022/08/16 10:46:25;;;;;;;8.70;5.95;;;;;;;30.28;41.10;98209.09;5120704;27;20039;-90
2022/08/16 10:48:51;;;;;;;10.88;5.68;;;;;;;30.09;40.64;98210.38;5119963;28;20712;-91
2022/08/16 10:51:17;;;;;;;12.32;5.97;;;;;;;30.02;41.49;98190.19;5125407;27;20101;-91
2022/08/16 10:53:44;;;;;;;9.73;5.65;;;;;;;29.77;41.07;98194.09;5125057;27;20484;-90
2022/08/16 10:56:11;;;;;;;9.98;6.07;;;;;;;29.71;40.50;98212.06;5118714;27;20044;-91
2022/08/16 10:58:40;;;;;;;10.13;6.25;;;;;;;29.60;41.24;98209.69;5122648;27;20039;-90
2022/08/16 11:01:09;;;;;;;12.18;6.00;;;;;;;29.86;41.17;98188.41;5125311;27;20040;-91
2022/08/16 11:03:35;;;;;;;13.32;5.70;;;;;;;30.15;40.80;98213.44;5122173;28;20547;-91
2022/08/16 11:06:03;;;;;;;9.48;5.22;;;;;;;30.34;39.75;98202.03;5126290;27;20036;-92
2022/08/16 11:08:29;;;;;;;;;;;;;;;30.62;39.07;98216.09;5122455;27;20043;-91
2022/08/16 11:10:55;;;;;;;11.45;5.97;;;;;;;30.69;39.20;98206.06;5123408;27;20356;-94
2022/08/16 11:13:24;;;;;;;11.23;5.55;;;;;;;30.84;39.04;98213.47;5122745;27;20047;-91
2022/08/16 11:15:54;;;;;;;9.90;5.20;;;;;;;31.06;38.61;98234.63;5121129;28;20044;-89
2022/08/16 11:18:21;;;;;;;10.95;5.47;;;;;;;31.20;37.86;98230.19;5119027;27;20078;-91
2022/08/16 11:20:47;;;;;;;12.25;5.40;;;;;;;31.26;37.60;98231.34;5117726;28;20370;-91
2022/08/16 11:23:14;;;;;;;11.25;5.35;;;;;;;31.24;38.42;98231.53;5119708;27;20051;-90
2022/08/16 11:25:41;;;;;;;10.07;5.38;;;;;;;31.15;38.28;98223.56;5124412;27;21065;-91
2022/08/16 11:28:07;;;;;;;9.50;5.40;;;;;;;30.61;38.06;98213.50;5122988;27;20079;-91
2022/08/16 11:30:35;;;;;;;14.23;5.47;;;;;;;30.66;39.97;98225.63;5121646;27;20449;-90
2022/08/16 11:33:03;;;;;;;10.60;5.28;;;;;;;30.87;39.30;98208.53;5123008;28;20097;-91